sensor_id;sensor_type;location;lat;lon;timestamp;pressure;altitude;pressure_sealevel;temperature;humidity
45253;BME280;30988;50.518;30.486;2022-07-29T00:00:20;100405.28;;;23.84;48.35
45253;BME280;30988;50.518;30.486;2022-07-29T00:01:01;100405.28;;;23.84;48.03
45253;BME280;30988;50.518;30.486;2022-07-29T00:01:38;100403.91;;;23.88;47.75
45253;BME280;30988;50.518;30.486;2022-07-29T00:02:09;100408.13;;;23.91;48.16
45253;BME280;30988;50.518;30.486;2022-07-29T00:02:42;100404.44;;;23.92;48.16
45253;BME280;30988;50.518;30.486;2022-07-29T00:03:15;100410.28;;;23.96;47.83
45253;BME280;30988;50.518;30.486;2022-07-29T00:03:47;100409.63;;;23.94;47.45
45253;BME280;30988;50.518;30.486;2022-07-29T00:04:37;100401.94;;;23.91;47.64
45253;BME280;30988;50.518;30.486;2022-07-29T00:05:11;100413.97;;;23.95;47.74
45253;BME280;30988;50.518;30.486;2022-07-29T00:05:44;100404.09;;;23.87;47.10
45253;BME280;30988;50.518;30.486;2022-07-29T00:06:33;100408.78;;;23.85;47.42
45253;BME280;30988;50.518;30.486;2022-07-29T00:07:07;100404.44;;;23.84;47.11
45253;BME280;30988;50.518;30.486;2022-07-29T00:07:39;100413.63;;;23.89;47.04
45253;BME280;30988;50.518;30.486;2022-07-29T00:08:11;100409.78;;;23.76;47.05
45253;BME280;30988;50.518;30.486;2022-07-29T00:10:49;100404.53;;;23.50;46.81
45253;BME280;30988;50.518;30.486;2022-07-29T00:11:21;100405.38;;;23.50;46.86
45253;BME280;30988;50.518;30.486;2022-07-29T00:12:25;100406.56;;;23.48;46.35
45253;BME280;30988;50.518;30.486;2022-07-29T00:13:14;100408.22;;;23.41;46.60
45253;BME280;30988;50.518;30.486;2022-07-29T00:13:48;100400.72;;;23.44;46.61
45253;BME280;30988;50.518;30.486;2022-07-29T00:14:32;100406.72;;;23.46;46.34
45253;BME280;30988;50.518;30.486;2022-07-29T00:15:04;100405.22;;;23.44;46.46
45253;BME280;30988;50.518;30.486;2022-07-29T00:15:39;100399.53;;;23.39;46.35
45253;BME280;30988;50.518;30.486;2022-07-29T00:16:11;100410.06;;;23.40;46.07
45253;BME280;30988;50.518;30.486;2022-07-29T00:16:44;100403.03;;;23.47;46.31
45253;BME280;30988;50.518;30.486;2022-07-29T00:17:52;100399.91;;;23.52;46.51
45253;BME280;30988;50.518;30.486;2022-07-29T00:18:27;100408.06;;;23.50;46.32
45253;BME280;30988;50.518;30.486;2022-07-29T00:18:58;100404.72;;;23.48;45.98
45253;BME280;30988;50.518;30.486;2022-07-29T00:19:30;100402.72;;;23.50;46.22
45253;BME280;30988;50.518;30.486;2022-07-29T00:20:05;100408.75;;;23.52;46.32
45253;BME280;30988;50.518;30.486;2022-07-29T00:20:37;100402.56;;;23.52;46.07
45253;BME280;30988;50.518;30.486;2022-07-29T00:21:39;100403.06;;;23.55;46.09
45253;BME280;30988;50.518;30.486;2022-07-29T00:22:20;100403.56;;;23.51;45.55
45253;BME280;30988;50.518;30.486;2022-07-29T00:22:53;100402.56;;;23.52;45.65
45253;BME280;30988;50.518;30.486;2022-07-29T00:23:33;100406.56;;;23.56;46.02
45253;BME280;30988;50.518;30.486;2022-07-29T00:24:17;100402.41;;;23.53;45.48
45253;BME280;30988;50.518;30.486;2022-07-29T00:24:50;100401.56;;;23.53;45.61
45253;BME280;30988;50.518;30.486;2022-07-29T00:25:21;100404.59;;;23.58;45.78
45253;BME280;30988;50.518;30.486;2022-07-29T00:25:55;100404.09;;;23.63;45.49
45253;BME280;30988;50.518;30.486;2022-07-29T00:26:26;100406.09;;;23.61;45.76
45253;BME280;30988;50.518;30.486;2022-07-29T00:27:20;100401.09;;;23.66;45.42
45253;BME280;30988;50.518;30.486;2022-07-29T00:28:10;100397.91;;;23.62;45.15
45253;BME280;30988;50.518;30.486;2022-07-29T00:28:42;100396.72;;;23.56;45.63
45253;BME280;30988;50.518;30.486;2022-07-29T00:29:17;100405.06;;;23.53;45.44
45253;BME280;30988;50.518;30.486;2022-07-29T00:29:48;100401.22;;;23.48;45.48
45253;BME280;30988;50.518;30.486;2022-07-29T00:30:20;100402.03;;;23.48;45.45
45253;BME280;30988;50.518;30.486;2022-07-29T00:30:52;100406.25;;;23.51;45.66
45253;BME280;30988;50.518;30.486;2022-07-29T00:31:25;100402.72;;;23.50;45.23
45253;BME280;30988;50.518;30.486;2022-07-29T00:32:05;100404.22;;;23.45;45.26
45253;BME280;30988;50.518;30.486;2022-07-29T00:32:40;100406.56;;;23.48;45.24
45253;BME280;30988;50.518;30.486;2022-07-29T00:33:16;100408.91;;;23.51;45.61
45253;BME280;30988;50.518;30.486;2022-07-29T00:33:48;100403.41;;;23.52;45.34
45253;BME280;30988;50.518;30.486;2022-07-29T00:34:20;100408.09;;;23.58;45.48
45253;BME280;30988;50.518;30.486;2022-07-29T00:35:39;100405.09;;;23.62;45.50
45253;BME280;30988;50.518;30.486;2022-07-29T00:36:44;100407.09;;;23.51;45.60
45253;BME280;30988;50.518;30.486;2022-07-29T00:37:16;100401.38;;;23.46;45.38
45253;BME280;30988;50.518;30.486;2022-07-29T00:38:03;100401.56;;;23.53;45.35
45253;BME280;30988;50.518;30.486;2022-07-29T00:38:52;100409.75;;;23.51;45.58
45253;BME280;30988;50.518;30.486;2022-07-29T00:39:34;100407.91;;;23.44;45.41
45253;BME280;30988;50.518;30.486;2022-07-29T00:40:06;100402.72;;;23.50;45.68
45253;BME280;30988;50.518;30.486;2022-07-29T00:40:40;100408.06;;;23.50;45.46
45253;BME280;30988;50.518;30.486;2022-07-29T00:41:15;100397.25;;;23.60;45.63
45253;BME280;30988;50.518;30.486;2022-07-29T00:41:49;100400.28;;;23.65;45.90
45253;BME280;30988;50.518;30.486;2022-07-29T00:42:21;100395.41;;;23.69;45.64
45253;BME280;30988;50.518;30.486;2022-07-29T00:43:02;100404.09;;;23.71;45.56
45253;BME280;30988;50.518;30.486;2022-07-29T00:43:33;100405.94;;;23.70;45.65
45253;BME280;30988;50.518;30.486;2022-07-29T00:44:06;100395.06;;;23.72;45.64
45253;BME280;30988;50.518;30.486;2022-07-29T00:44:38;100398.41;;;23.74;45.64
45253;BME280;30988;50.518;30.486;2022-07-29T00:45:10;100390.56;;;23.72;45.37
45253;BME280;30988;50.518;30.486;2022-07-29T00:45:43;100398.09;;;23.69;45.52
45253;BME280;30988;50.518;30.486;2022-07-29T00:46:33;100400.28;;;23.65;45.59
45253;BME280;30988;50.518;30.486;2022-07-29T00:47:36;100396.56;;;23.58;45.43
45253;BME280;30988;50.518;30.486;2022-07-29T00:48:08;100401.88;;;23.50;45.28
45253;BME280;30988;50.518;30.486;2022-07-29T00:48:43;100400.72;;;23.52;45.15
45253;BME280;30988;50.518;30.486;2022-07-29T00:49:14;100399.72;;;23.53;45.22
45253;BME280;30988;50.518;30.486;2022-07-29T00:49:46;100404.72;;;23.56;45.47
45253;BME280;30988;50.518;30.486;2022-07-29T00:50:19;100404.25;;;23.61;45.11
45253;BME280;30988;50.518;30.486;2022-07-29T00:50:52;100398.72;;;23.38;44.97
45253;BME280;30988;50.518;30.486;2022-07-29T00:51:25;100403.38;;;23.44;45.33
45253;BME280;30988;50.518;30.486;2022-07-29T00:51:57;100396.53;;;23.42;45.34
45253;BME280;30988;50.518;30.486;2022-07-29T00:52:32;100402.72;;;23.50;45.17
45253;BME280;30988;50.518;30.486;2022-07-29T00:53:23;100397.22;;;23.52;44.97
45253;BME280;30988;50.518;30.486;2022-07-29T00:54:00;100396.72;;;23.56;45.47
45253;BME280;30988;50.518;30.486;2022-07-29T00:54:32;100395.56;;;23.59;45.45
45253;BME280;30988;50.518;30.486;2022-07-29T00:55:09;100395.22;;;23.62;45.37
45253;BME280;30988;50.518;30.486;2022-07-29T00:55:41;100400.75;;;23.61;45.44
45253;BME280;30988;50.518;30.486;2022-07-29T00:56:14;100396.41;;;23.59;45.16
45253;BME280;30988;50.518;30.486;2022-07-29T00:56:46;100397.06;;;23.62;45.42
45253;BME280;30988;50.518;30.486;2022-07-29T00:57:26;100402.94;;;23.65;45.06
45253;BME280;30988;50.518;30.486;2022-07-29T00:57:58;100394.75;;;23.67;45.26
45253;BME280;30988;50.518;30.486;2022-07-29T00:58:29;100393.75;;;23.68;45.11
45253;BME280;30988;50.518;30.486;2022-07-29T00:59:10;100387.38;;;23.69;45.43
45253;BME280;30988;50.518;30.486;2022-07-29T00:59:41;100388.41;;;23.68;45.18
45253;BME280;30988;50.518;30.486;2022-07-29T01:00:15;100397.44;;;23.67;45.06
45253;BME280;30988;50.518;30.486;2022-07-29T01:01:01;100398.59;;;23.64;45.15
45253;BME280;30988;50.518;30.486;2022-07-29T01:01:34;100398.44;;;23.66;45.35
45253;BME280;30988;50.518;30.486;2022-07-29T01:02:05;100395.41;;;23.61;44.96
45253;BME280;30988;50.518;30.486;2022-07-29T01:02:36;100386.72;;;23.58;45.45
45253;BME280;30988;50.518;30.486;2022-07-29T01:03:08;100390.88;;;23.61;45.31
45253;BME280;30988;50.518;30.486;2022-07-29T01:03:42;100390.88;;;23.53;45.29
45253;BME280;30988;50.518;30.486;2022-07-29T01:04:13;100387.00;;;23.47;45.12
45253;BME280;30988;50.518;30.486;2022-07-29T01:04:50;100389.69;;;23.47;44.98
45253;BME280;30988;50.518;30.486;2022-07-29T01:05:25;100388.84;;;23.47;45.14
45253;BME280;30988;50.518;30.486;2022-07-29T01:06:07;100389.19;;;23.44;45.13
45253;BME280;30988;50.518;30.486;2022-07-29T01:06:48;100395.38;;;23.44;44.96
45253;BME280;30988;50.518;30.486;2022-07-29T01:07:19;100389.19;;;23.44;45.24
45253;BME280;30988;50.518;30.486;2022-07-29T01:07:57;100380.31;;;23.43;45.03
45253;BME280;30988;50.518;30.486;2022-07-29T01:08:31;100379.16;;;23.46;45.08
45253;BME280;30988;50.518;30.486;2022-07-29T01:09:04;100381.16;;;23.44;45.53
45253;BME280;30988;50.518;30.486;2022-07-29T01:09:39;100389.50;;;23.49;45.62
45253;BME280;30988;50.518;30.486;2022-07-29T01:10:12;100381.66;;;23.47;45.07
45253;BME280;30988;50.518;30.486;2022-07-29T01:10:47;100386.16;;;23.47;45.54
45253;BME280;30988;50.518;30.486;2022-07-29T01:11:21;100384.34;;;23.47;45.05
45253;BME280;30988;50.518;30.486;2022-07-29T01:11:54;100382.34;;;23.41;45.35
45253;BME280;30988;50.518;30.486;2022-07-29T01:12:27;100380.00;;;23.46;45.25
45253;BME280;30988;50.518;30.486;2022-07-29T01:13:02;100388.84;;;23.47;45.61
45253;BME280;30988;50.518;30.486;2022-07-29T01:13:36;100388.00;;;23.46;45.18
45253;BME280;30988;50.518;30.486;2022-07-29T01:14:13;100391.69;;;23.53;45.35
45253;BME280;30988;50.518;30.486;2022-07-29T01:14:46;100391.69;;;23.53;45.60
45253;BME280;30988;50.518;30.486;2022-07-29T01:15:20;100387.72;;;23.57;45.44
45253;BME280;30988;50.518;30.486;2022-07-29T01:15:55;100384.88;;;23.59;45.24
45253;BME280;30988;50.518;30.486;2022-07-29T01:16:32;100396.22;;;23.61;45.54
45253;BME280;30988;50.518;30.486;2022-07-29T01:17:11;100397.91;;;23.62;45.22
45253;BME280;30988;50.518;30.486;2022-07-29T01:17:52;100384.53;;;23.62;45.55
45253;BME280;30988;50.518;30.486;2022-07-29T01:18:34;100391.91;;;23.60;45.36
45253;BME280;30988;50.518;30.486;2022-07-29T01:19:35;100392.06;;;23.58;45.67
45253;BME280;30988;50.518;30.486;2022-07-29T01:20:13;100391.22;;;23.58;45.66
45253;BME280;30988;50.518;30.486;2022-07-29T01:21:39;100388.03;;;23.54;45.70
45253;BME280;30988;50.518;30.486;2022-07-29T01:22:36;100395.38;;;23.52;45.27
45253;BME280;30988;50.518;30.486;2022-07-29T01:24:51;100387.84;;;23.48;45.65
45253;BME280;30988;50.518;30.486;2022-07-29T01:26:14;100390.00;;;23.36;45.52
45253;BME280;30988;50.518;30.486;2022-07-29T01:27:05;100395.19;;;23.38;45.95
45253;BME280;30988;50.518;30.486;2022-07-29T01:27:51;100382.81;;;23.37;45.69
45253;BME280;30988;50.518;30.486;2022-07-29T01:29:02;100387.84;;;23.40;45.74
45253;BME280;30988;50.518;30.486;2022-07-29T01:29:44;100386.84;;;23.41;45.86
45253;BME280;30988;50.518;30.486;2022-07-29T01:30:27;100388.31;;;23.35;45.91
45253;BME280;30988;50.518;30.486;2022-07-29T01:31:11;100390.69;;;23.38;46.18
45253;BME280;30988;50.518;30.486;2022-07-29T01:32:03;100388.50;;;23.42;46.16
45253;BME280;30988;50.518;30.486;2022-07-29T01:32:38;100385.00;;;23.41;46.36
45253;BME280;30988;50.518;30.486;2022-07-29T01:33:15;100391.84;;;23.44;46.25
45253;BME280;30988;50.518;30.486;2022-07-29T01:34:05;100388.34;;;23.43;46.13
45253;BME280;30988;50.518;30.486;2022-07-29T01:34:44;100390.69;;;23.46;46.40
45253;BME280;30988;50.518;30.486;2022-07-29T01:35:22;100387.00;;;23.47;46.46
45253;BME280;30988;50.518;30.486;2022-07-29T01:35:54;100386.00;;;23.48;46.23
45253;BME280;30988;50.518;30.486;2022-07-29T01:36:51;100384.84;;;23.43;46.32
45253;BME280;30988;50.518;30.486;2022-07-29T01:37:27;100386.19;;;23.39;46.40
45253;BME280;30988;50.518;30.486;2022-07-29T01:38:03;100389.69;;;23.39;46.04
45253;BME280;30988;50.518;30.486;2022-07-29T01:38:38;100391.34;;;23.40;46.19
45253;BME280;30988;50.518;30.486;2022-07-29T01:39:19;100393.53;;;23.45;46.24
45253;BME280;30988;50.518;30.486;2022-07-29T01:40:14;100390.34;;;23.41;46.47
45253;BME280;30988;50.518;30.486;2022-07-29T01:40:53;100390.19;;;23.43;46.12
45253;BME280;30988;50.518;30.486;2022-07-29T01:41:40;100393.53;;;23.45;46.61
45253;BME280;30988;50.518;30.486;2022-07-29T01:42:19;100388.16;;;23.37;46.28
45253;BME280;30988;50.518;30.486;2022-07-29T01:42:55;100391.16;;;23.34;46.14
45253;BME280;30988;50.518;30.486;2022-07-29T01:43:32;100390.50;;;23.32;46.56
45253;BME280;30988;50.518;30.486;2022-07-29T01:44:13;100392.16;;;23.33;46.43
45253;BME280;30988;50.518;30.486;2022-07-29T01:45:17;100389.16;;;23.36;46.39
45253;BME280;30988;50.518;30.486;2022-07-29T01:45:53;100393.38;;;23.38;46.18
45253;BME280;30988;50.518;30.486;2022-07-29T01:46:30;100391.19;;;23.42;46.49
45253;BME280;30988;50.518;30.486;2022-07-29T01:47:09;100388.34;;;23.43;46.52
45253;BME280;30988;50.518;30.486;2022-07-29T01:48:04;100387.34;;;23.44;46.56
45253;BME280;30988;50.518;30.486;2022-07-29T01:48:44;100388.19;;;23.45;46.40
45253;BME280;30988;50.518;30.486;2022-07-29T01:49:20;100389.00;;;23.45;46.21
45253;BME280;30988;50.518;30.486;2022-07-29T01:50:20;100389.34;;;23.42;46.25
45253;BME280;30988;50.518;30.486;2022-07-29T01:51:06;100386.34;;;23.45;46.05
45253;BME280;30988;50.518;30.486;2022-07-29T01:51:46;100386.50;;;23.44;46.22
45253;BME280;30988;50.518;30.486;2022-07-29T01:52:26;100386.50;;;23.44;46.46
45253;BME280;30988;50.518;30.486;2022-07-29T01:53:17;100392.19;;;23.41;46.22
45253;BME280;30988;50.518;30.486;2022-07-29T01:54:01;100382.97;;;23.35;46.47
45253;BME280;30988;50.518;30.486;2022-07-29T01:54:38;100381.31;;;23.34;46.10
45253;BME280;30988;50.518;30.486;2022-07-29T01:55:15;100382.16;;;23.26;46.38
45253;BME280;30988;50.518;30.486;2022-07-29T01:55:48;100384.81;;;23.35;46.37
45253;BME280;30988;50.518;30.486;2022-07-29T01:56:23;100390.53;;;23.40;46.14
45253;BME280;30988;50.518;30.486;2022-07-29T01:56:58;100385.69;;;23.43;46.41
45253;BME280;30988;50.518;30.486;2022-07-29T01:57:38;100380.66;;;23.40;46.02
45253;BME280;30988;50.518;30.486;2022-07-29T01:58:14;100380.84;;;23.39;46.16
45253;BME280;30988;50.518;30.486;2022-07-29T01:58:49;100386.66;;;23.34;45.95
45253;BME280;30988;50.518;30.486;2022-07-29T01:59:34;100385.16;;;23.32;46.00
45253;BME280;30988;50.518;30.486;2022-07-29T02:00:15;100389.34;;;23.26;46.21
45253;BME280;30988;50.518;30.486;2022-07-29T02:00:48;100384.50;;;23.29;46.56
45253;BME280;30988;50.518;30.486;2022-07-29T02:01:30;100388.16;;;23.37;46.41
45253;BME280;30988;50.518;30.486;2022-07-29T02:02:04;100392.19;;;23.41;46.69
45253;BME280;30988;50.518;30.486;2022-07-29T02:02:42;100384.66;;;23.36;46.25
45253;BME280;30988;50.518;30.486;2022-07-29T02:03:17;100389.50;;;23.33;46.55
45253;BME280;30988;50.518;30.486;2022-07-29T02:03:50;100393.19;;;23.40;46.65
45253;BME280;30988;50.518;30.486;2022-07-29T02:04:24;100396.53;;;23.42;46.37
45253;BME280;30988;50.518;30.486;2022-07-29T02:05:07;100395.69;;;23.33;46.83
45253;BME280;30988;50.518;30.486;2022-07-29T02:05:42;100399.72;;;23.37;46.53
45253;BME280;30988;50.518;30.486;2022-07-29T02:06:49;100399.84;;;23.36;46.68
45253;BME280;30988;50.518;30.486;2022-07-29T02:07:25;100399.84;;;23.36;47.05
45253;BME280;30988;50.518;30.486;2022-07-29T02:08:00;100396.19;;;23.37;47.14
45253;BME280;30988;50.518;30.486;2022-07-29T02:08:33;100402.38;;;23.37;47.14
45253;BME280;30988;50.518;30.486;2022-07-29T02:09:12;100400.53;;;23.29;46.75
45253;BME280;30988;50.518;30.486;2022-07-29T02:09:45;100401.84;;;23.34;47.13
45253;BME280;30988;50.518;30.486;2022-07-29T02:10:21;100398.84;;;23.37;47.05
45253;BME280;30988;50.518;30.486;2022-07-29T02:11:02;100401.22;;;23.40;47.28
45253;BME280;30988;50.518;30.486;2022-07-29T02:11:38;100406.88;;;23.37;47.30
45253;BME280;30988;50.518;30.486;2022-07-29T02:12:11;100399.84;;;23.36;47.22
45253;BME280;30988;50.518;30.486;2022-07-29T02:12:48;100407.88;;;23.36;47.17
45253;BME280;30988;50.518;30.486;2022-07-29T02:13:23;100394.69;;;23.34;47.58
45253;BME280;30988;50.518;30.486;2022-07-29T02:14:04;100403.22;;;23.38;47.10
45253;BME280;30988;50.518;30.486;2022-07-29T02:14:58;100401.38;;;23.38;47.63
45253;BME280;30988;50.518;30.486;2022-07-29T02:15:32;100399.72;;;23.37;47.49
45253;BME280;30988;50.518;30.486;2022-07-29T02:16:07;100406.56;;;23.40;47.44
45253;BME280;30988;50.518;30.486;2022-07-29T02:16:52;100404.06;;;23.38;47.42
45253;BME280;30988;50.518;30.486;2022-07-29T02:17:27;100404.69;;;23.32;47.94
45253;BME280;30988;50.518;30.486;2022-07-29T02:18:02;100405.88;;;23.29;47.68
45253;BME280;30988;50.518;30.486;2022-07-29T02:18:37;100408.22;;;23.33;48.12
45253;BME280;30988;50.518;30.486;2022-07-29T02:19:10;100407.03;;;23.35;48.20
45253;BME280;30988;50.518;30.486;2022-07-29T02:19:46;100404.53;;;23.34;48.26
45253;BME280;30988;50.518;30.486;2022-07-29T02:20:19;100407.72;;;23.37;48.12
45253;BME280;30988;50.518;30.486;2022-07-29T02:20:52;100402.22;;;23.39;48.22
45253;BME280;30988;50.518;30.486;2022-07-29T02:21:41;100407.22;;;23.25;47.83
45253;BME280;30988;50.518;30.486;2022-07-29T02:22:24;100401.50;;;23.20;48.01
45253;BME280;30988;50.518;30.486;2022-07-29T02:22:58;100401.00;;;23.17;48.49
45253;BME280;30988;50.518;30.486;2022-07-29T02:23:32;100397.31;;;23.18;48.62
45253;BME280;30988;50.518;30.486;2022-07-29T02:24:08;100402.00;;;23.16;48.51
45253;BME280;30988;50.518;30.486;2022-07-29T02:24:44;100405.50;;;23.16;48.77
45253;BME280;30988;50.518;30.486;2022-07-29T02:25:17;100407.69;;;23.21;48.50
45253;BME280;30988;50.518;30.486;2022-07-29T02:25:50;100398.16;;;23.18;48.86
45253;BME280;30988;50.518;30.486;2022-07-29T02:26:25;100403.69;;;23.25;48.97
45253;BME280;30988;50.518;30.486;2022-07-29T02:27:10;100407.53;;;23.30;49.27
45253;BME280;30988;50.518;30.486;2022-07-29T02:27:44;100407.53;;;23.30;49.31
45253;BME280;30988;50.518;30.486;2022-07-29T02:28:17;100406.19;;;23.35;49.33
45253;BME280;30988;50.518;30.486;2022-07-29T02:28:53;100403.34;;;23.36;49.41
45253;BME280;30988;50.518;30.486;2022-07-29T02:29:26;100407.56;;;23.39;49.15
45253;BME280;30988;50.518;30.486;2022-07-29T02:30:08;100405.91;;;23.38;49.22
45253;BME280;30988;50.518;30.486;2022-07-29T02:30:47;100406.88;;;23.37;49.49
45253;BME280;30988;50.518;30.486;2022-07-29T02:31:34;100408.22;;;23.33;49.40
45253;BME280;30988;50.518;30.486;2022-07-29T02:32:46;100410.53;;;23.27;49.80
45253;BME280;30988;50.518;30.486;2022-07-29T02:33:19;100410.03;;;23.32;49.81
45253;BME280;30988;50.518;30.486;2022-07-29T02:33:54;100405.19;;;23.36;50.01
45253;BME280;30988;50.518;30.486;2022-07-29T02:34:33;100405.72;;;23.39;50.16
45253;BME280;30988;50.518;30.486;2022-07-29T02:35:06;100404.19;;;23.37;50.13
45253;BME280;30988;50.518;30.486;2022-07-29T02:35:48;100405.03;;;23.29;49.80
45253;BME280;30988;50.518;30.486;2022-07-29T02:36:21;100406.22;;;23.26;49.78
45253;BME280;30988;50.518;30.486;2022-07-29T02:36:54;100405.19;;;23.27;50.45
45253;BME280;30988;50.518;30.486;2022-07-29T02:37:36;100401.69;;;23.27;50.56
45253;BME280;30988;50.518;30.486;2022-07-29T02:38:13;100397.69;;;23.31;50.09
45253;BME280;30988;50.518;30.486;2022-07-29T02:39:04;100403.63;;;23.00;50.42
45253;BME280;30988;50.518;30.486;2022-07-29T02:39:39;100404.47;;;23.01;50.63
45253;BME280;30988;50.518;30.486;2022-07-29T02:40:15;100402.34;;;23.13;50.79
45253;BME280;30988;50.518;30.486;2022-07-29T02:40:50;100401.84;;;23.17;51.09
45253;BME280;30988;50.518;30.486;2022-07-29T02:41:27;100404.53;;;23.25;51.00
45253;BME280;30988;50.518;30.486;2022-07-29T02:42:17;100402.19;;;23.30;51.23
45253;BME280;30988;50.518;30.486;2022-07-29T02:42:52;100407.38;;;23.32;51.36
45253;BME280;30988;50.518;30.486;2022-07-29T02:43:24;100408.03;;;23.34;51.37
45253;BME280;30988;50.518;30.486;2022-07-29T02:44:01;100409.53;;;23.37;50.75
45253;BME280;30988;50.518;30.486;2022-07-29T02:44:37;100405.19;;;23.36;51.17
45253;BME280;30988;50.518;30.486;2022-07-29T02:45:25;100410.72;;;23.34;51.09
45253;BME280;30988;50.518;30.486;2022-07-29T02:46:04;100405.91;;;23.38;50.67
45253;BME280;30988;50.518;30.486;2022-07-29T02:46:49;100403.88;;;23.32;50.68
45253;BME280;30988;50.518;30.486;2022-07-29T02:47:26;100409.53;;;23.28;50.97
45253;BME280;30988;50.518;30.486;2022-07-29T02:47:59;100412.72;;;23.32;51.07
45253;BME280;30988;50.518;30.486;2022-07-29T02:48:38;100405.19;;;23.36;50.99
45253;BME280;30988;50.518;30.486;2022-07-29T02:49:16;100404.91;;;23.39;50.65
45253;BME280;30988;50.518;30.486;2022-07-29T02:49:55;100408.22;;;23.41;50.78
45253;BME280;30988;50.518;30.486;2022-07-29T02:50:32;100408.06;;;23.42;50.71
45253;BME280;30988;50.518;30.486;2022-07-29T02:51:08;100406.88;;;23.45;51.10
45253;BME280;30988;50.518;30.486;2022-07-29T02:52:02;100406.88;;;23.37;50.52
45253;BME280;30988;50.518;30.486;2022-07-29T02:52:39;100409.53;;;23.37;50.41
45253;BME280;30988;50.518;30.486;2022-07-29T02:53:15;100400.84;;;23.35;50.63
45253;BME280;30988;50.518;30.486;2022-07-29T02:54:00;100405.72;;;23.39;50.66
45253;BME280;30988;50.518;30.486;2022-07-29T02:54:49;100410.06;;;23.40;50.83
45253;BME280;30988;50.518;30.486;2022-07-29T02:56:01;100415.41;;;23.40;50.69
45253;BME280;30988;50.518;30.486;2022-07-29T02:56:37;100415.25;;;23.42;50.28
45253;BME280;30988;50.518;30.486;2022-07-29T02:57:14;100410.56;;;23.44;50.23
45253;BME280;30988;50.518;30.486;2022-07-29T02:57:57;100406.72;;;23.46;50.19
45253;BME280;30988;50.518;30.486;2022-07-29T02:58:38;100414.41;;;23.49;50.24
45253;BME280;30988;50.518;30.486;2022-07-29T02:59:11;100411.91;;;23.48;50.07
45253;BME280;30988;50.518;30.486;2022-07-29T02:59:57;100408.41;;;23.47;50.32
45253;BME280;30988;50.518;30.486;2022-07-29T03:00:37;100408.91;;;23.51;50.16
45253;BME280;30988;50.518;30.486;2022-07-29T03:01:16;100411.59;;;23.51;49.93
45253;BME280;30988;50.518;30.486;2022-07-29T03:01:58;100412.56;;;23.50;49.78
45253;BME280;30988;50.518;30.486;2022-07-29T03:02:35;100416.41;;;23.47;50.01
45253;BME280;30988;50.518;30.486;2022-07-29T03:03:11;100418.09;;;23.48;50.06
45253;BME280;30988;50.518;30.486;2022-07-29T03:03:45;100418.44;;;23.53;49.65
45253;BME280;30988;50.518;30.486;2022-07-29T03:04:19;100411.25;;;23.54;49.43
45253;BME280;30988;50.518;30.486;2022-07-29T03:05:09;100414.75;;;23.54;49.44
45253;BME280;30988;50.518;30.486;2022-07-29T03:06:24;100415.78;;;23.53;49.31
45253;BME280;30988;50.518;30.486;2022-07-29T03:07:01;100412.75;;;23.48;49.65
45253;BME280;30988;50.518;30.486;2022-07-29T03:07:36;100413.09;;;23.53;49.22
45253;BME280;30988;50.518;30.486;2022-07-29T03:08:11;100412.94;;;23.55;49.50
45253;BME280;30988;50.518;30.486;2022-07-29T03:08:43;100417.28;;;23.56;49.15
45253;BME280;30988;50.518;30.486;2022-07-29T03:09:30;100414.13;;;23.61;49.55
45253;BME280;30988;50.518;30.486;2022-07-29T03:10:05;100412.94;;;23.63;49.31
45253;BME280;30988;50.518;30.486;2022-07-29T03:10:42;100414.47;;;23.66;49.09
45253;BME280;30988;50.518;30.486;2022-07-29T03:12:40;100408.59;;;23.62;48.91
45253;BME280;30988;50.518;30.486;2022-07-29T03:13:53;100409.25;;;23.56;48.96
45253;BME280;30988;50.518;30.486;2022-07-29T03:14:26;100413.56;;;23.49;48.97
45253;BME280;30988;50.518;30.486;2022-07-29T03:14:58;100410.59;;;23.60;48.93
45253;BME280;30988;50.518;30.486;2022-07-29T03:15:47;100412.81;;;23.65;48.65
45253;BME280;30988;50.518;30.486;2022-07-29T03:16:22;100404.78;;;23.65;48.86
45253;BME280;30988;50.518;30.486;2022-07-29T03:16:58;100413.31;;;23.68;48.41
45253;BME280;30988;50.518;30.486;2022-07-29T03:17:30;100415.97;;;23.68;48.58
45253;BME280;30988;50.518;30.486;2022-07-29T03:18:05;100407.78;;;23.70;48.37
45253;BME280;30988;50.518;30.486;2022-07-29T03:18:39;100403.94;;;23.72;48.78
45253;BME280;30988;50.518;30.486;2022-07-29T03:19:34;100420.97;;;23.71;48.60
45253;BME280;30988;50.518;30.486;2022-07-29T03:20:11;100414.47;;;23.74;48.64
45253;BME280;30988;50.518;30.486;2022-07-29T03:20:44;100415.13;;;23.68;48.36
45253;BME280;30988;50.518;30.486;2022-07-29T03:21:29;100412.44;;;23.59;48.02
45253;BME280;30988;50.518;30.486;2022-07-29T03:22:02;100417.31;;;23.64;48.47
45253;BME280;30988;50.518;30.486;2022-07-29T03:22:38;100415.81;;;23.70;47.97
45253;BME280;30988;50.518;30.486;2022-07-29T03:23:18;100411.47;;;23.69;47.85
45253;BME280;30988;50.518;30.486;2022-07-29T03:23:50;100417.97;;;23.66;48.36
45253;BME280;30988;50.518;30.486;2022-07-29T03:24:37;100419.28;;;23.62;47.75
45253;BME280;30988;50.518;30.486;2022-07-29T03:25:09;100414.66;;;23.64;47.92
45253;BME280;30988;50.518;30.486;2022-07-29T03:25:42;100420.13;;;23.63;47.67
45253;BME280;30988;50.518;30.486;2022-07-29T03:26:14;100414.94;;;23.61;48.27
45253;BME280;30988;50.518;30.486;2022-07-29T03:26:45;100422.31;;;23.59;47.60
45253;BME280;30988;50.518;30.486;2022-07-29T03:27:18;100424.28;;;23.57;47.64